Time;durP1;ratioP1;P1;durP2;ratioP2;P2;SDS_P1;SDS_P2;PMS_P1;PMS_P2;Temp;Humidity;BMP_temperature;BMP_pressure;BME280_temperature;BME280_humidity;BME280_pressure;Samples;Min_cycle;Max_cycle;Signal;HPM_P1;HPM_P2
2022/09/09 00:01:51;;;;;;;2.80;1.52;;;;;;;14.37;90.91;100702.22;5038292;28;20021;-80
2022/09/09 00:04:36;;;;;;;3.10;1.83;;;;;;;14.46;91.56;100710.34;5037914;28;20494;-79
2022/09/09 00:07:45;;;;;;;4.68;1.63;;;;;;;14.40;91.07;100704.56;5035222;28;20033;-80
2022/09/09 00:10:31;;;;;;;2.53;1.40;;;;;;;14.37;91.34;100701.34;5023024;28;20090;-79
2022/09/09 00:13:23;;;;;;;1.88;1.35;;;;;;;14.34;90.77;100696.31;5024322;28;20491;-79
2022/09/09 00:15:51;;;;;;;1.55;1.45;;;;;;;14.28;90.43;100702.25;5036955;28;20026;-79
2022/09/09 00:18:31;;;;;;;3.23;1.87;;;;;;;14.28;91.39;100694.22;5021613;28;20081;-80
2022/09/09 00:21:06;;;;;;;6.55;1.67;;;;;;;14.30;91.52;100700.25;5034819;28;20039;-79
2022/09/09 00:23:36;;;;;;;1.65;1.23;;;;;;;14.25;90.71;100692.69;5018987;28;20522;-79
2022/09/09 00:26:16;;;;;;;2.88;1.55;;;;;;;14.23;91.22;100692.00;5035223;28;20116;-79
2022/09/09 00:28:55;;;;;;;2.67;1.48;;;;;;;14.26;90.55;100694.38;5033086;28;20033;-80
2022/09/09 00:31:27;;;;;;;2.58;1.38;;;;;;;14.19;90.23;100688.78;5031991;28;20048;-79
2022/09/09 00:33:53;;;;;;;2.42;1.50;;;;;;;14.18;90.12;100689.75;5035711;28;20028;-79
2022/09/09 00:36:23;;;;;;;6.30;1.60;;;;;;;14.19;90.92;100682.59;5023751;28;20042;-79
2022/09/09 00:38:52;;;;;;;2.38;1.27;;;;;;;14.16;89.95;100686.38;5018075;28;20079;-80
2022/09/09 00:41:50;;;;;;;2.30;1.30;;;;;;;14.18;89.85;100684.41;5036156;28;20086;-80
2022/09/09 00:44:30;;;;;;;3.15;1.60;;;;;;;14.16;90.72;100674.88;5027526;28;20527;-79
2022/09/09 00:47:00;;;;;;;;;;;;;;;14.25;88.33;100676.66;5037094;28;20033;-79
2022/09/09 00:49:46;;;;;;;5.07;1.48;;;;;;;14.16;90.97;100675.69;5023161;28;19909;-79
2022/09/09 00:52:30;;;;;;;1.95;1.40;;;;;;;14.12;91.81;100674.31;5100472;22;20049;-53
2022/09/09 00:55:20;;;;;;;2.50;1.60;;;;;;;14.15;90.56;100671.34;5037512;28;20087;-54
2022/09/09 00:57:51;;;;;;;2.75;1.33;;;;;;;14.03;91.56;100673.34;5044282;28;20379;-53
2022/09/09 01:00:20;;;;;;;2.00;1.80;;;;;;;14.05;91.52;100670.53;5044823;28;20032;-53
2022/09/09 01:03:13;;;;;;;3.80;1.48;;;;;;;14.01;92.22;100672.66;5045009;28;20481;-52
2022/09/09 01:06:03;;;;;;;3.25;1.50;;;;;;;14.01;91.21;100671.81;5047840;28;20044;-55
2022/09/09 01:08:52;;;;;;;2.33;1.50;;;;;;;14.01;91.78;100669.16;5054417;28;20033;-53
2022/09/09 01:11:38;;;;;;;2.13;1.40;;;;;;;14.00;91.49;100673.63;5050522;28;20060;-53
2022/09/09 01:14:34;;;;;;;3.95;1.65;;;;;;;14.01;91.15;100661.97;5054316;28;20025;-53
2022/09/09 01:17:14;;;;;;;3.33;1.58;;;;;;;13.95;92.31;100669.72;5049602;28;20068;-53
2022/09/09 01:19:43;;;;;;;7.45;1.67;;;;;;;13.95;91.79;100667.03;5047751;28;20510;-53
2022/09/09 01:22:20;;;;;;;2.85;1.38;;;;;;;13.95;92.15;100664.38;5054424;28;20029;-54
2022/09/09 01:25:13;;;;;;;4.93;1.63;;;;;;;13.94;91.77;100660.00;5053898;28;20045;-53
2022/09/09 01:27:41;;;;;;;2.13;1.20;;;;;;;13.86;91.86;100656.25;5053918;28;20383;-53
2022/09/09 01:30:12;;;;;;;1.60;1.30;;;;;;;13.87;92.28;100657.06;5054038;28;20057;-53
2022/09/09 01:32:37;;;;;;;2.13;1.33;;;;;;;13.87;92.60;100651.72;5053058;28;20033;-55
2022/09/09 01:35:04;;;;;;;2.27;1.57;;;;;;;13.84;92.08;100658.22;5047703;28;20539;-54
2022/09/09 01:37:29;;;;;;;2.88;1.80;;;;;;;13.83;92.70;100659.19;5054033;28;20050;-55
2022/09/09 01:39:54;;;;;;;3.63;1.60;;;;;;;13.80;92.42;100650.63;5053750;28;20024;-52
2022/09/09 01:42:19;;;;;;;3.75;2.00;;;;;;;13.81;92.67;100647.00;5045963;28;20112;-53
2022/09/09 01:44:45;;;;;;;6.28;2.00;;;;;;;13.78;93.00;100649.94;5052332;28;20024;-51
2022/09/09 01:47:10;;;;;;;4.63;2.00;;;;;;;13.77;92.74;100640.22;5053658;28;20386;-54
2022/09/09 01:49:35;;;;;;;5.95;1.80;;;;;;;13.75;92.65;100645.72;5054254;28;20471;-53
2022/09/09 01:52:01;;;;;;;6.18;2.20;;;;;;;13.74;92.77;100645.84;5046600;28;20058;-54
2022/09/09 01:54:30;;;;;;;3.33;1.90;;;;;;;13.72;92.73;100634.50;5052687;28;20025;-54
2022/09/09 01:57:11;;;;;;;8.48;2.47;;;;;;;13.72;93.39;100631.81;5053010;28;20500;-53
2022/09/09 01:59:48;;;;;;;3.50;1.73;;;;;;;13.68;93.24;100644.59;5029345;28;20108;-49
2022/09/09 02:02:38;;;;;;;3.83;2.47;;;;;;;13.69;94.01;100630.28;5042835;28;20049;-53
2022/09/09 02:05:24;;;;;;;5.22;2.58;;;;;;;13.68;93.55;100631.25;5038153;28;20391;-53
2022/09/09 02:07:56;;;;;;;3.67;2.10;;;;;;;13.64;92.89;100621.88;5030643;28;20036;-53
2022/09/09 02:10:29;;;;;;;5.60;2.47;;;;;;;13.65;93.65;100620.88;5050287;28;20033;-53
2022/09/09 02:13:04;;;;;;;6.03;2.67;;;;;;;13.64;93.65;100630.72;5024209;28;20076;-52
2022/09/09 02:15:42;;;;;;;5.50;2.45;;;;;;;13.63;93.19;100630.84;5031091;28;20387;-54
2022/09/09 02:18:10;;;;;;;5.72;2.30;;;;;;;13.60;93.76;100634.63;5043572;28;20033;-54
2022/09/09 02:20:38;;;;;;;3.47;2.55;;;;;;;13.55;93.86;100625.38;5052200;28;20025;-53
2022/09/09 02:23:05;;;;;;;5.55;2.50;;;;;;;13.58;93.98;100630.44;5034494;28;20040;-52
2022/09/09 02:25:30;;;;;;;7.18;2.67;;;;;;;13.59;94.11;100637.44;5052334;28;20096;-53
2022/09/09 02:27:58;;;;;;;5.85;2.72;;;;;;;13.58;93.95;100625.94;5043320;28;20120;-52
2022/09/09 02:30:24;;;;;;;4.50;2.70;;;;;;;13.57;94.05;100628.75;5040132;28;20548;-53
2022/09/09 02:32:52;;;;;;;5.47;2.80;;;;;;;13.55;94.37;100625.38;5050963;28;20060;-52
2022/09/09 02:35:20;;;;;;;6.22;2.97;;;;;;;13.49;94.43;100622.31;5051913;28;20029;-54
2022/09/09 02:37:46;;;;;;;7.07;2.83;;;;;;;13.53;94.47;100620.19;5047345;28;20504;-52
2022/09/09 02:40:13;;;;;;;6.90;2.95;;;;;;;13.52;95.18;100621.16;5052345;28;20025;-55
2022/09/09 02:42:47;;;;;;;5.20;2.80;;;;;;;13.50;94.71;100613.28;5041002;28;20495;-54
2022/09/09 02:45:16;;;;;;;5.97;2.80;;;;;;;13.48;94.32;100617.94;5052345;28;20045;-55
2022/09/09 02:48:00;;;;;;;5.20;2.67;;;;;;;13.47;94.44;100613.59;5052104;28;20048;-54
2022/09/09 02:50:30;;;;;;;3.08;2.40;;;;;;;13.48;94.91;100614.44;5044873;28;20454;-52
2022/09/09 02:53:14;;;;;;;6.68;3.17;;;;;;;13.49;94.78;100619.63;5033524;28;20041;-54
2022/09/09 02:55:59;;;;;;;4.63;3.05;;;;;;;13.49;94.34;100627.63;5032730;28;20124;-55
2022/09/09 02:58:25;;;;;;;6.28;2.45;;;;;;;13.43;94.40;100627.38;5026492;28;20029;-53
2022/09/09 03:00:52;;;;;;;6.55;2.78;;;;;;;13.43;94.83;100627.38;5032891;28;20025;-55
2022/09/09 03:03:19;;;;;;;6.80;2.75;;;;;;;13.44;94.57;100631.69;5033152;28;20038;-54
2022/09/09 03:05:45;;;;;;;4.95;2.40;;;;;;;13.43;94.79;100630.03;5027609;28;20028;-54
2022/09/09 03:08:11;;;;;;;7.82;2.70;;;;;;;13.41;95.35;100624.00;5024545;28;20120;-52
2022/09/09 03:10:36;;;;;;;3.95;2.70;;;;;;;13.42;94.92;100626.53;5033135;28;20029;-53
2022/09/09 03:13:05;;;;;;;8.30;2.75;;;;;;;13.40;95.00;100623.16;5043097;28;20060;-54
2022/09/09 03:15:31;;;;;;;4.82;2.78;;;;;;;13.39;95.35;100629.47;5049810;28;20033;-53
2022/09/09 03:17:56;;;;;;;8.80;2.67;;;;;;;13.39;95.71;100631.28;5044671;28;20111;-55
2022/09/09 03:20:23;;;;;;;3.85;2.35;;;;;;;13.38;95.41;100633.13;5037151;28;20039;-54
2022/09/09 03:22:49;;;;;;;4.78;2.33;;;;;;;13.39;95.66;100637.47;5036495;28;20040;-53
2022/09/09 03:25:14;;;;;;;6.45;2.90;;;;;;;13.40;95.63;100632.97;5033284;28;20013;-54
2022/09/09 03:27:40;;;;;;;7.97;3.00;;;;;;;13.41;95.68;100642.69;5036742;28;20029;-54
2022/09/09 03:30:06;;;;;;;6.13;2.42;;;;;;;13.41;95.73;100640.84;5037360;28;20386;-54
2022/09/09 03:32:31;;;;;;;4.63;2.50;;;;;;;13.40;95.68;100641.81;5035441;28;20427;-55
2022/09/09 03:34:57;;;;;;;4.55;2.65;;;;;;;13.44;96.54;100635.22;5035218;28;20030;-55
2022/09/09 03:37:22;;;;;;;5.50;2.20;;;;;;;13.41;96.14;100634.69;5031062;28;20141;-55
2022/09/09 03:39:48;;;;;;;6.47;2.50;;;;;;;13.40;96.38;100632.97;5034548;28;20041;-55
2022/09/09 03:42:18;;;;;;;4.60;2.20;;;;;;;13.40;96.08;100627.66;5033436;28;20025;-54
2022/09/09 03:44:47;;;;;;;9.00;2.72;;;;;;;13.39;96.67;100632.16;5033774;28;20089;-55
2022/09/09 03:47:13;;;;;;;5.13;2.28;;;;;;;13.40;96.35;100624.97;5028440;28;20452;-53
2022/09/09 03:49:38;;;;;;;8.30;2.30;;;;;;;13.40;96.25;100633.81;5035643;28;20026;-52
2022/09/09 03:52:03;;;;;;;7.90;2.30;;;;;;;13.40;96.02;100633.81;5028908;28;20046;-52
2022/09/09 03:54:28;;;;;;;6.68;2.00;;;;;;;13.39;95.97;100625.94;5034469;28;20292;-53
2022/09/09 03:56:54;;;;;;;8.20;2.40;;;;;;;13.40;96.09;100627.66;5035957;28;20108;-54
2022/09/09 03:59:21;;;;;;;7.20;2.20;;;;;;;13.39;96.02;100626.81;5032377;28;20292;-53
2022/09/09 04:01:47;;;;;;;5.05;2.03;;;;;;;13.39;96.75;100632.16;5035968;28;20037;-53
2022/09/09 04:04:12;;;;;;;6.25;2.20;;;;;;;13.37;96.71;100627.91;5025999;28;20368;-52
2022/09/09 04:06:37;;;;;;;7.32;2.33;;;;;;;13.35;97.07;100624.56;5035459;28;20119;-52
2022/09/09 04:09:03;;;;;;;7.10;2.10;;;;;;;13.36;97.21;100621.75;5035727;28;20032;-52
2022/09/09 04:11:29;;;;;;;5.18;2.70;;;;;;;13.35;97.43;100612.06;5027598;28;20311;-54
2022/09/09 04:13:54;;;;;;;7.60;2.53;;;;;;;13.32;97.23;100612.34;5033589;28;20112;-50
2022/09/09 04:16:20;;;;;;;6.72;2.88;;;;;;;13.33;97.27;100617.53;5026391;28;20022;-53
2022/09/09 04:18:45;;;;;;;3.97;2.35;;;;;;;13.32;97.76;100626.53;5032977;28;20387;-52
2022/09/09 04:21:12;;;;;;;7.57;2.50;;;;;;;13.33;97.85;100622.03;5046255;28;20057;-53
2022/09/09 04:23:38;;;;;;;6.93;2.47;;;;;;;13.36;97.99;100626.25;5046058;28;20029;-51
2022/09/09 04:26:04;;;;;;;7.20;2.72;;;;;;;13.36;98.00;100615.59;5037899;28;20029;-50
2022/09/09 04:28:31;;;;;;;5.60;2.38;;;;;;;13.35;98.63;100616.56;5053300;28;20098;-52
2022/09/09 04:30:57;;;;;;;10.02;2.47;;;;;;;13.38;98.39;100617.13;5055014;28;20021;-52
2022/09/09 04:33:26;;;;;;;8.45;2.58;;;;;;;13.38;98.86;100603.78;5030583;28;20047;-54
2022/09/09 04:35:54;;;;;;;11.65;2.40;;;;;;;13.38;98.43;100614.44;5054550;28;20081;-52
2022/09/09 04:38:22;;;;;;;5.57;2.47;;;;;;;13.39;99.33;100608.13;5051499;28;20025;-52
2022/09/09 04:40:48;;;;;;;6.07;2.50;;;;;;;13.39;99.26;100609.94;5054501;28;20285;-52
2022/09/09 04:43:16;;;;;;;6.72;2.50;;;;;;;13.39;99.48;100608.13;5050433;28;20032;-52
2022/09/09 04:45:43;;;;;;;8.15;2.95;;;;;;;13.40;98.94;100612.47;5054621;28;20116;-50
2022/09/09 04:48:09;;;;;;;8.75;3.00;;;;;;;13.39;98.89;100610.81;5054156;28;20087;-53
2022/09/09 04:50:35;;;;;;;9.98;2.60;;;;;;;13.40;99.43;100601.81;5054521;28;20047;-53
2022/09/09 04:53:01;;;;;;;8.82;2.42;;;;;;;13.41;99.56;100602.66;5032771;28;20452;-52
2022/09/09 04:55:27;;;;;;;10.10;2.50;;;;;;;13.42;99.41;100599.00;5052619;28;20025;-51
2022/09/09 04:57:52;;;;;;;6.82;2.92;;;;;;;13.42;99.23;100583.84;5052471;28;20025;-54
2022/09/09 05:00:18;;;;;;;8.47;2.33;;;;;;;13.44;99.01;100595.22;5042905;28;20119;-53
2022/09/09 05:02:44;;;;;;;8.77;3.00;;;;;;;13.45;99.08;100596.03;5052306;28;20278;-55
2022/09/09 05:05:11;;;;;;;6.25;2.55;;;;;;;13.47;99.27;100600.28;5036768;28;20033;-54
2022/09/09 05:07:36;;;;;;;8.38;2.22;;;;;;;13.49;99.69;100602.78;5033930;28;20475;-54
2022/09/09 05:10:04;;;;;;;9.63;2.97;;;;;;;13.51;100.00;100608.81;5031232;28;20076;-54
2022/09/09 05:12:31;;;;;;;7.28;2.65;;;;;;;13.52;100.00;100597.16;5039975;28;20030;-55
2022/09/09 05:14:56;;;;;;;8.55;2.58;;;;;;;13.53;99.95;100598.00;5036536;28;20021;-56
2022/09/09 05:17:21;;;;;;;8.98;2.70;;;;;;;13.54;100.00;100595.19;5035249;28;20037;-55
2022/09/09 05:19:47;;;;;;;12.23;2.90;;;;;;;13.56;100.00;100593.22;5032041;28;20475;-56
2022/09/09 05:22:12;;;;;;;8.15;2.50;;;;;;;13.55;100.00;100593.38;5033412;28;20037;-55
2022/09/09 05:24:38;;;;;;;7.43;2.67;;;;;;;13.58;100.00;100585.09;5033616;28;20014;-54
2022/09/09 05:27:05;;;;;;;7.35;2.10;;;;;;;13.59;100.00;100592.06;5033459;28;20789;-55
2022/09/09 05:29:33;;;;;;;12.05;2.40;;;;;;;13.61;100.00;100592.81;5018126;28;20384;-55
2022/09/09 05:31:58;;;;;;;7.85;2.35;;;;;;;13.62;100.00;100589.13;5030448;28;20026;-55
2022/09/09 05:34:24;;;;;;;7.65;2.67;;;;;;;13.62;100.00;100584.66;5028189;28;20029;-55
2022/09/09 05:36:49;;;;;;;11.23;2.50;;;;;;;13.64;100.00;100589.84;5029757;28;20032;-55
2022/09/09 05:39:14;;;;;;;9.38;2.80;;;;;;;13.68;99.88;100599.25;5025158;28;20045;-56
2022/09/09 05:41:39;;;;;;;6.03;2.60;;;;;;;13.68;100.00;100594.72;5033805;28;20116;-55
2022/09/09 05:44:06;;;;;;;9.77;2.90;;;;;;;13.72;100.00;100595.28;5029851;28;20303;-55
2022/09/09 05:46:31;;;;;;;7.50;2.75;;;;;;;13.73;100.00;100604.16;5017714;28;20439;-55
2022/09/09 05:48:58;;;;;;;8.30;3.10;;;;;;;13.74;100.00;100598.66;5029984;28;20519;-55
2022/09/09 05:51:26;;;;;;;7.90;2.63;;;;;;;13.75;100.00;100608.34;5022656;28;20515;-56
2022/09/09 05:53:52;;;;;;;6.47;2.53;;;;;;;13.79;100.00;100603.56;5029743;28;20052;-54
2022/09/09 05:56:21;;;;;;;8.40;2.30;;;;;;;13.81;100.00;100610.44;5028748;28;20067;-54
2022/09/09 05:58:46;;;;;;;;;;;;;;;13.88;99.58;100610.72;5046891;28;20078;-55
2022/09/09 06:01:20;;;;;;;7.93;2.37;;;;;;;13.84;100.00;100614.66;5028357;28;20004;-53
2022/09/09 06:03:47;;;;;;;12.85;3.08;;;;;;;13.89;100.00;100609.72;5040332;28;20279;-54
2022/09/09 06:06:15;;;;;;;10.45;3.00;;;;;;;13.92;100.00;100609.41;5040365;28;20064;-53
2022/09/09 06:08:43;;;;;;;12.07;2.92;;;;;;;13.93;100.00;100597.75;5048333;28;20033;-55
2022/09/09 06:11:12;;;;;;;8.63;2.70;;;;;;;13.98;100.00;100608.84;5042629;28;20017;-55
2022/09/09 06:13:39;;;;;;;11.53;3.03;;;;;;;14.02;100.00;100602.25;5026582;28;20032;-54
2022/09/09 06:16:07;;;;;;;11.57;2.50;;;;;;;14.07;100.00;100615.13;5029916;28;20017;-55
2022/09/09 06:18:32;;;;;;;10.95;2.78;;;;;;;14.11;100.00;100605.84;5032652;28;20057;-56
2022/09/09 06:21:00;;;;;;;11.13;2.70;;;;;;;14.15;100.00;100601.91;5027958;28;20026;-55
2022/09/09 06:23:26;;;;;;;9.85;2.92;;;;;;;14.18;100.00;100608.78;5027185;28;20029;-56
2022/09/09 06:26:00;;;;;;;10.50;2.53;;;;;;;14.21;100.00;100611.16;5033143;28;20034;-56
2022/09/09 06:28:25;;;;;;;10.52;3.30;;;;;;;14.22;100.00;100605.69;5033121;28;20025;-55
2022/09/09 06:30:59;;;;;;;11.40;2.67;;;;;;;14.22;100.00;100616.38;5025565;28;20036;-55
2022/09/09 06:33:26;;;;;;;12.07;2.70;;;;;;;14.25;100.00;100613.41;5030122;28;20091;-55
2022/09/09 06:35:53;;;;;;;13.73;2.85;;;;;;;14.27;100.00;100607.88;5029836;28;20469;-55
2022/09/09 06:38:18;;;;;;;11.10;2.97;;;;;;;14.31;100.00;100605.78;5030683;28;20029;-55
2022/09/09 06:40:51;;;;;;;12.00;3.85;;;;;;;14.35;100.00;100612.50;5033470;28;20039;-55
2022/09/09 06:43:17;;;;;;;11.15;3.00;;;;;;;14.35;99.75;100604.47;5030060;28;20039;-55
2022/09/09 06:45:42;;;;;;;9.05;2.63;;;;;;;14.40;99.52;100604.88;5033802;28;20396;-55
2022/09/09 06:48:08;;;;;;;11.25;2.90;;;;;;;14.42;99.59;100602.91;5023577;28;20127;-55
2022/09/09 06:50:34;;;;;;;8.05;2.65;;;;;;;14.47;99.41;100600.66;5033904;28;20025;-55
2022/09/09 06:52:59;;;;;;;9.82;2.85;;;;;;;14.50;99.45;100608.34;5028283;28;20056;-54
2022/09/09 06:55:25;;;;;;;5.83;2.77;;;;;;;14.54;99.28;100593.69;5034039;28;20108;-55
2022/09/09 06:57:51;;;;;;;13.40;3.00;;;;;;;14.59;99.50;100602.16;5034418;28;20299;-55
2022/09/09 07:00:18;;;;;;;11.00;3.03;;;;;;;14.66;98.56;100606.91;5031544;28;20324;-55
2022/09/09 07:02:44;;;;;;;14.50;2.92;;;;;;;14.75;99.42;100608.66;5031508;28;20556;-54
2022/09/09 07:05:09;;;;;;;8.13;2.53;;;;;;;14.82;97.77;100604.38;5029523;28;20036;-54
2022/09/09 07:07:35;;;;;;;9.43;2.78;;;;;;;14.91;98.04;100602.66;5022014;28;20041;-55
2022/09/09 07:10:00;;;;;;;12.00;2.83;;;;;;;15.01;97.52;100602.59;5017205;28;20030;-54
2022/09/09 07:12:25;;;;;;;10.68;3.20;;;;;;;15.14;97.89;100606.53;5014100;28;20026;-55
2022/09/09 07:14:50;;;;;;;8.17;2.63;;;;;;;15.24;97.51;100605.59;5016663;28;20029;-54
2022/09/09 07:17:16;;;;;;;13.30;2.85;;;;;;;15.34;97.54;100614.41;5015811;28;20300;-54
2022/09/09 07:19:42;;;;;;;10.80;2.63;;;;;;;15.38;94.51;100604.25;5007411;28;20037;-54
2022/09/09 07:22:07;;;;;;;7.05;2.40;;;;;;;15.44;95.66;100599.09;5013741;28;20415;-55
2022/09/09 07:24:33;;;;;;;8.75;2.53;;;;;;;15.52;94.44;100603.66;5015608;28;20101;-54
2022/09/09 07:26:59;;;;;;;9.85;2.72;;;;;;;15.55;95.12;100603.34;5018821;28;20041;-54
2022/09/09 07:29:24;;;;;;;10.52;2.50;;;;;;;15.59;94.05;100595.84;5016187;28;20064;-55
2022/09/09 07:31:50;;;;;;;11.25;3.28;;;;;;;15.60;94.03;100601.06;5017546;28;20478;-56
2022/09/09 07:34:15;;;;;;;11.32;2.90;;;;;;;15.60;92.58;100605.56;5019404;28;20022;-55
2022/09/09 07:36:41;;;;;;;9.17;2.73;;;;;;;15.63;93.14;100605.25;5021160;28;20026;-55
2022/09/09 07:39:09;;;;;;;9.23;2.53;;;;;;;15.63;92.66;100606.09;5015812;28;20299;-55
2022/09/09 07:41:46;;;;;;;13.20;2.30;;;;;;;15.63;93.00;100606.09;4998761;28;20547;-55
2022/09/09 07:44:22;;;;;;;14.52;3.28;;;;;;;15.67;92.17;100611.97;5013197;28;20496;-55
2022/09/09 07:46:48;;;;;;;14.20;2.65;;;;;;;15.70;92.26;100603.63;5012026;28;20083;-54
2022/09/09 07:49:14;;;;;;;9.77;2.40;;;;;;;15.73;91.78;100600.66;5014959;28;20022;-55
2022/09/09 07:51:45;;;;;;;10.15;2.92;;;;;;;15.78;92.22;100603.72;5018099;28;20054;-55
2022/09/09 07:54:12;;;;;;;8.07;2.35;;;;;;;15.84;91.66;100603.09;5018636;28;20041;-55
2022/09/09 07:56:43;;;;;;;15.55;3.03;;;;;;;15.95;91.13;100601.97;5017088;28;20059;-53
2022/09/09 07:59:10;;;;;;;11.23;2.53;;;;;;;16.04;91.00;100601.03;5014630;28;20037;-53
2022/09/09 08:01:39;;;;;;;10.30;2.60;;;;;;;16.18;91.78;100606.81;5027863;28;20021;-54
2022/09/09 08:04:14;;;;;;;10.65;2.55;;;;;;;16.22;90.55;100603.66;5023330;28;20059;-53
2022/09/09 08:06:42;;;;;;;11.48;2.33;;;;;;;16.27;89.13;100601.31;5021955;28;20556;-56
2022/09/09 08:09:08;;;;;;;9.90;2.60;;;;;;;16.36;89.74;100606.72;5016611;28;20032;-56
2022/09/09 08:11:35;;;;;;;5.90;2.15;;;;;;;16.40;89.81;100608.06;5031768;28;20037;-57
2022/09/09 08:14:01;;;;;;;10.93;2.80;;;;;;;16.42;87.65;100606.91;5033275;28;20498;-57
2022/09/09 08:16:30;;;;;;;11.25;2.50;;;;;;;16.45;87.15;100606.59;5034693;28;20028;-57
2022/09/09 08:18:55;;;;;;;8.23;2.42;;;;;;;16.50;87.74;100597.22;5033607;28;20380;-57
2022/09/09 08:21:32;;;;;;;9.18;2.20;;;;;;;16.55;87.71;100608.28;5034736;28;20025;-57
2022/09/09 08:24:00;;;;;;;8.40;2.30;;;;;;;16.57;84.38;100596.41;5038985;28;20080;-57
2022/09/09 08:26:30;;;;;;;10.02;3.05;;;;;;;16.61;86.30;100600.44;5036943;28;20038;-57
2022/09/09 08:28:57;;;;;;;14.73;3.30;;;;;;;16.65;84.65;100604.47;5035348;28;20472;-57
2022/09/09 08:31:28;;;;;;;8.43;2.00;;;;;;;16.67;84.61;100614.19;5037474;28;20045;-58
2022/09/09 08:33:54;;;;;;;8.13;2.60;;;;;;;16.67;85.24;100615.03;5034436;28;20037;-57
2022/09/09 08:36:22;;;;;;;7.75;2.22;;;;;;;16.64;84.92;100612.69;5033468;28;20083;-57
2022/09/09 08:38:50;;;;;;;13.77;2.10;;;;;;;16.69;85.23;100614.88;5015092;28;20048;-56
2022/09/09 08:41:28;;;;;;;11.15;2.38;;;;;;;16.69;85.50;100614.88;5032647;28;20025;-57
2022/09/09 08:44:23;;;;;;;7.97;2.05;;;;;;;16.71;84.01;100616.38;5031596;28;20024;-58
2022/09/09 08:47:01;;;;;;;8.60;1.90;;;;;;;16.69;84.44;100621.06;5005000;28;20041;-58
2022/09/09 08:49:53;;;;;;;9.30;2.10;;;;;;;16.72;84.73;100619.91;5032713;28;20029;-56
2022/09/09 08:52:21;;;;;;;9.73;2.40;;;;;;;16.72;82.74;100626.13;5033275;28;20060;-57
2022/09/09 08:54:47;;;;;;;8.10;2.20;;;;;;;16.77;82.60;100617.56;5039155;28;20088;-56
2022/09/09 08:57:21;;;;;;;8.25;2.30;;;;;;;16.83;84.59;100622.28;5053354;28;20028;-57
2022/09/09 08:59:46;;;;;;;7.38;2.10;;;;;;;16.92;83.83;100625.84;5033686;28;20031;-57
2022/09/09 09:02:36;;;;;;;12.07;2.35;;;;;;;16.95;83.33;100626.38;5034841;28;20159;-58
2022/09/09 09:05:23;;;;;;;7.32;2.30;;;;;;;16.98;83.08;100638.63;5037743;28;20033;-57
2022/09/09 09:08:15;;;;;;;9.80;2.47;;;;;;;16.99;81.95;100629.56;5040857;28;20025;-58
2022/09/09 09:10:54;;;;;;;8.80;2.20;;;;;;;16.97;81.95;100634.25;5040186;28;20032;-57
2022/09/09 09:13:26;;;;;;;5.75;1.58;;;;;;;16.96;80.50;100632.56;5035234;28;20084;-54
2022/09/09 09:16:14;;;;;;;8.93;2.75;;;;;;;16.99;81.00;100640.31;5051336;28;20028;-57
2022/09/09 09:18:39;;;;;;;11.45;2.10;;;;;;;16.95;81.81;100637.13;5044530;28;20371;-59
2022/09/09 09:21:24;;;;;;;9.13;2.38;;;;;;;16.98;80.78;100647.50;5042047;28;20021;-59
2022/09/09 09:24:00;;;;;;;9.75;2.25;;;;;;;16.94;81.35;100642.63;5042581;28;20021;-59
2022/09/09 09:26:32;;;;;;;9.40;2.38;;;;;;;16.96;81.57;100648.69;5044095;28;20031;-59
2022/09/09 09:29:00;;;;;;;11.35;2.10;;;;;;;16.99;82.22;100648.34;5042507;28;20075;-59
2022/09/09 09:31:26;;;;;;;7.63;2.05;;;;;;;17.02;82.23;100648.84;5038243;28;20057;-56
2022/09/09 09:33:54;;;;;;;8.20;1.75;;;;;;;17.06;81.23;100645.84;5039974;28;20028;-56
2022/09/09 09:36:33;;;;;;;10.15;2.35;;;;;;;17.08;80.61;100646.50;5034827;28;20044;-56
2022/09/09 09:39:00;;;;;;;6.38;2.00;;;;;;;17.09;81.23;100648.22;5034608;28;20408;-56
2022/09/09 09:41:45;;;;;;;9.52;2.30;;;;;;;17.13;83.02;100641.50;5036239;28;20472;-57
2022/09/09 09:44:28;;;;;;;10.23;2.30;;;;;;;17.09;83.55;100638.31;5034638;28;20021;-57
2022/09/09 09:47:14;;;;;;;5.85;1.85;;;;;;;17.06;83.17;100644.00;5032669;28;20036;-56
2022/09/09 09:49:55;;;;;;;10.40;2.30;;;;;;;17.06;83.35;100632.44;5035105;28;20029;-57
2022/09/09 09:52:26;;;;;;;7.38;2.20;;;;;;;17.10;83.39;100648.03;5034346;28;20103;-57
2022/09/09 09:54:53;;;;;;;12.90;2.50;;;;;;;17.05;83.41;100644.97;5038217;28;20220;-56
2022/09/09 09:57:26;;;;;;;10.50;2.22;;;;;;;17.08;84.14;100651.88;5034928;28;20083;-57
2022/09/09 10:00:11;;;;;;;9.70;2.20;;;;;;;17.01;83.90;100639.13;5039411;28;20031;-57
2022/09/09 10:02:40;;;;;;;10.02;2.28;;;;;;;16.90;84.25;100639.41;5036819;28;20035;-57
2022/09/09 10:05:17;;;;;;;8.50;2.33;;;;;;;16.91;85.16;100635.75;5037591;28;20040;-57
2022/09/09 10:07:45;;;;;;;12.20;2.20;;;;;;;16.84;85.77;100650.78;5047497;28;20113;-57
2022/09/09 10:10:24;;;;;;;7.43;2.28;;;;;;;16.81;85.09;100641.22;5039704;28;20091;-57
2022/09/09 10:13:05;;;;;;;7.97;2.63;;;;;;;16.83;85.47;100646.41;5044590;28;20025;-57
2022/09/09 10:15:57;;;;;;;9.80;2.55;;;;;;;16.83;86.52;100654.47;5039140;28;20120;-57
2022/09/09 10:18:39;;;;;;;5.28;2.03;;;;;;;16.81;86.00;100643.06;5028407;28;20030;-57
2022/09/09 10:21:17;;;;;;;9.75;2.50;;;;;;;16.71;86.64;100637.84;5020733;28;20036;-57
2022/09/09 10:24:11;;;;;;;10.00;2.78;;;;;;;16.69;87.34;100653.25;5036541;28;20114;-57
2022/09/09 10:26:58;;;;;;;7.80;2.15;;;;;;;16.65;87.19;100658.13;5026463;28;20067;-57
2022/09/09 10:29:43;;;;;;;8.13;2.47;;;;;;;16.62;86.83;100655.75;5031864;28;20033;-57
2022/09/09 10:32:15;;;;;;;11.82;2.50;;;;;;;16.57;87.82;100659.91;5042288;28;20045;-57
2022/09/09 10:34:57;;;;;;;11.32;2.88;;;;;;;16.58;87.47;100661.59;5022684;28;20048;-57
2022/09/09 10:37:23;;;;;;;9.50;2.50;;;;;;;16.55;88.24;100668.09;5030550;28;20033;-55
2022/09/09 10:39:57;;;;;;;8.32;2.20;;;;;;;16.52;87.99;100659.53;5025694;28;20037;-56
2022/09/09 10:42:29;;;;;;;9.65;3.17;;;;;;;16.49;88.50;100647.31;5013105;28;20117;-57
2022/09/09 10:45:16;;;;;;;5.90;2.00;;;;;;;16.57;88.12;100658.06;5020394;28;20109;-56
2022/09/09 10:48:23;;;;;;;7.80;2.33;;;;;;;16.62;87.78;100655.75;5014408;28;20030;-56
2022/09/09 10:51:05;;;;;;;8.07;2.95;;;;;;;16.59;87.63;100653.38;4980282;28;20045;-57
2022/09/09 10:53:36;;;;;;;7.93;2.33;;;;;;;16.61;87.65;100655.91;5012333;28;20038;-55
2022/09/09 10:56:08;;;;;;;10.80;2.38;;;;;;;16.62;87.89;100652.22;5013964;28;20026;-54
2022/09/09 10:58:55;;;;;;;12.32;2.20;;;;;;;16.68;88.65;100651.56;5000127;28;20084;-56
2022/09/09 11:01:47;;;;;;;7.95;2.17;;;;;;;16.71;87.55;100659.28;5018932;28;20037;-54
2022/09/09 11:04:25;;;;;;;8.07;2.72;;;;;;;16.71;88.06;100661.16;5023439;28;20028;-52
2022/09/09 11:06:55;;;;;;;10.75;2.95;;;;;;;16.75;88.52;100660.66;5026168;28;20105;-57
2022/09/09 11:09:32;;;;;;;6.53;2.22;;;;;;;16.81;88.72;100668.03;5024978;28;20021;-57
2022/09/09 11:12:02;;;;;;;9.73;2.88;;;;;;;16.81;87.96;100656.47;5023974;28;20589;-57
2022/09/09 11:14:42;;;;;;;6.03;2.15;;;;;;;16.90;89.44;100652.00;5017631;28;20033;-57
2022/09/09 11:17:16;;;;;;;9.23;2.47;;;;;;;16.88;88.80;100646.81;5028707;28;20064;-57
2022/09/09 11:19:45;;;;;;;6.40;2.17;;;;;;;16.93;89.09;100654.38;5027820;28;20026;-57
2022/09/09 11:22:23;;;;;;;5.80;2.15;;;;;;;16.89;88.16;100656.53;5029442;28;20480;-56
2022/09/09 11:25:14;;;;;;;6.40;2.25;;;;;;;16.88;88.53;100659.38;5031255;28;20033;-57
2022/09/09 11:28:09;;;;;;;9.13;2.25;;;;;;;16.86;87.97;100654.19;5024635;28;20046;-57
2022/09/09 11:30:52;;;;;;;5.25;1.88;;;;;;;16.85;88.18;100649.81;5016357;28;20053;-56
2022/09/09 11:33:37;;;;;;;6.50;2.40;;;;;;;16.83;88.18;100651.78;5022123;28;20508;-56
2022/09/09 11:36:24;;;;;;;4.75;2.17;;;;;;;16.81;87.87;100646.59;5018174;28;20094;-57
2022/09/09 11:38:52;;;;;;;6.53;2.15;;;;;;;16.81;88.10;100651.94;5019534;28;20034;-56
2022/09/09 11:41:20;;;;;;;7.28;2.35;;;;;;;16.85;88.54;100648.97;5029955;28;20074;-56
2022/09/09 11:43:51;;;;;;;6.20;2.22;;;;;;;16.83;87.28;100643.75;5035058;28;20027;-56